Ana Sayfa
METAR-TAF:

METAR-TAF

Havaalanları :

Fort St. John, İngiliz Kolombiyası, Kanada

Enlem: 56-14N, Boylam: 120-44W, yükseklik: 695 m

Güncel hava durumu gözlemi

Rapor saat 20:00 UTC de 1 saat ve 10 dakika önce yapıldı.
Sakin rüzgar
Sıcaklık -4°C
Nem 54%
Basınç 1011 hPa
Görüş mesafesi: 96.5 km
21000 ft yükseklikte az bulutlu

METAR: CYXJ 232000Z 00000KT 60SM FEW210 M04/M12 A2984 RMK CI2 SLP147

Saat: 14:10 (21:10 UTC)

Tahmin

Rapor saat 18:38 UTC de 2 saat ve 32 dakika önce yapıldı.
Ayın 23'si saat 19 UTC'den ayın 24'si saat 07 UTC'ye kadar geçerli Tahmin
Rüzgar değişken yönden 3 kt
Görüş mesafesi: 10 km
20000 ft yükseklikte parçalı bulutlu
Dönüşüyor
ayın 24'si saat 00 UTC'den ayın 24'si saat 02 UTC'ye kadar
18000 ft yükseklikte parçalı çok bulutlu

TAF: CYXJ 231838Z 2319/2407 VRB03KT P6SM SCT200 BECMG 2400/2402 BKN180 RMK NXT FCST BY 240100Z

4.000'den fazla havaalanı için hava durumu gözlemleri ve tahminleri (METAR ve TAF raporları).

Kullanılabilir istasyonlar harita üzerinde sarı ve kırmızı noktalarla gösterilir.

İstasyonun adını görmek için fareyi noktanın üzerinde gezdirin.

Sonrasında hava gözlem ve tahminlerini görmek için tıklayın.

Haritayı değiştirmek için: yaklaştırmak için siyah artı işaretli yeşil düğmeye ve uzaklaştırmak için de eksi işaretli düğmeye hızla tıklayın; bitişik haritalar için yeşil okları kullanın.


METAR-TAF: